sensor_id;sensor_type;location;lat;lon;timestamp;P1;durP1;ratioP1;P2;durP2;ratioP2
20008;SDS011;10165;42.662;23.260;2023-07-20T00:02:23;8.50;;;2.10;;
20008;SDS011;10165;42.662;23.260;2023-07-20T00:04:50;3.73;;;2.03;;
20008;SDS011;10165;42.662;23.260;2023-07-20T00:07:17;8.20;;;2.73;;
20008;SDS011;10165;42.662;23.260;2023-07-20T00:09:44;7.13;;;3.03;;
20008;SDS011;10165;42.662;23.260;2023-07-20T00:12:10;10.87;;;3.17;;
20008;SDS011;10165;42.662;23.260;2023-07-20T00:14:37;3.93;;;2.37;;
20008;SDS011;10165;42.662;23.260;2023-07-20T00:17:04;4.80;;;2.20;;
20008;SDS011;10165;42.662;23.260;2023-07-20T00:19:31;5.13;;;2.40;;
20008;SDS011;10165;42.662;23.260;2023-07-20T00:21:58;5.87;;;2.63;;
20008;SDS011;10165;42.662;23.260;2023-07-20T00:24:25;7.40;;;2.47;;
20008;SDS011;10165;42.662;23.260;2023-07-20T00:26:52;10.23;;;2.40;;
20008;SDS011;10165;42.662;23.260;2023-07-20T00:29:19;8.93;;;1.93;;
20008;SDS011;10165;42.662;23.260;2023-07-20T00:31:46;4.87;;;2.27;;
20008;SDS011;10165;42.662;23.260;2023-07-20T00:34:15;4.83;;;2.53;;
20008;SDS011;10165;42.662;23.260;2023-07-20T00:36:42;7.83;;;2.50;;
20008;SDS011;10165;42.662;23.260;2023-07-20T00:39:09;5.90;;;2.37;;
20008;SDS011;10165;42.662;23.260;2023-07-20T00:41:36;5.80;;;2.40;;
20008;SDS011;10165;42.662;23.260;2023-07-20T00:44:03;4.17;;;1.90;;
20008;SDS011;10165;42.662;23.260;2023-07-20T00:46:30;4.33;;;2.07;;
20008;SDS011;10165;42.662;23.260;2023-07-20T00:48:59;8.40;;;2.33;;
20008;SDS011;10165;42.662;23.260;2023-07-20T00:51:26;5.40;;;2.47;;
20008;SDS011;10165;42.662;23.260;2023-07-20T00:53:53;5.93;;;2.40;;
20008;SDS011;10165;42.662;23.260;2023-07-20T00:56:21;3.73;;;2.20;;
20008;SDS011;10165;42.662;23.260;2023-07-20T00:58:48;9.23;;;2.57;;
20008;SDS011;10165;42.662;23.260;2023-07-20T01:01:15;5.90;;;2.20;;
20008;SDS011;10165;42.662;23.260;2023-07-20T01:03:42;6.83;;;2.60;;
20008;SDS011;10165;42.662;23.260;2023-07-20T01:06:10;5.20;;;2.37;;
20008;SDS011;10165;42.662;23.260;2023-07-20T01:14:20;6.43;;;2.33;;
20008;SDS011;10165;42.662;23.260;2023-07-20T01:16:49;5.30;;;2.57;;
20008;SDS011;10165;42.662;23.260;2023-07-20T01:19:18;2.97;;;2.07;;
20008;SDS011;10165;42.662;23.260;2023-07-20T01:21:48;7.47;;;2.40;;
20008;SDS011;10165;42.662;23.260;2023-07-20T01:24:44;7.57;;;2.83;;
20008;SDS011;10165;42.662;23.260;2023-07-20T01:32:49;8.63;;;2.97;;
20008;SDS011;10165;42.662;23.260;2023-07-20T01:35:20;6.60;;;2.40;;
20008;SDS011;10165;42.662;23.260;2023-07-20T01:37:50;6.97;;;2.80;;
20008;SDS011;10165;42.662;23.260;2023-07-20T01:40:20;13.53;;;2.53;;
20008;SDS011;10165;42.662;23.260;2023-07-20T01:42:49;5.53;;;2.70;;
20008;SDS011;10165;42.662;23.260;2023-07-20T01:45:18;6.83;;;2.30;;
20008;SDS011;10165;42.662;23.260;2023-07-20T01:47:44;5.27;;;2.30;;
20008;SDS011;10165;42.662;23.260;2023-07-20T01:50:12;7.73;;;2.47;;
20008;SDS011;10165;42.662;23.260;2023-07-20T01:52:38;4.60;;;2.60;;
20008;SDS011;10165;42.662;23.260;2023-07-20T01:55:05;10.43;;;2.97;;
20008;SDS011;10165;42.662;23.260;2023-07-20T01:57:32;5.60;;;2.83;;
20008;SDS011;10165;42.662;23.260;2023-07-20T01:59:59;5.47;;;2.70;;
20008;SDS011;10165;42.662;23.260;2023-07-20T02:02:28;7.40;;;2.40;;
20008;SDS011;10165;42.662;23.260;2023-07-20T02:04:55;4.27;;;2.23;;
20008;SDS011;10165;42.662;23.260;2023-07-20T02:07:22;5.13;;;2.33;;
20008;SDS011;10165;42.662;23.260;2023-07-20T02:09:49;4.60;;;2.50;;
20008;SDS011;10165;42.662;23.260;2023-07-20T02:12:15;6.27;;;2.43;;
20008;SDS011;10165;42.662;23.260;2023-07-20T02:14:42;3.40;;;2.27;;
20008;SDS011;10165;42.662;23.260;2023-07-20T02:17:09;8.13;;;2.83;;
20008;SDS011;10165;42.662;23.260;2023-07-20T02:19:37;7.90;;;2.70;;
20008;SDS011;10165;42.662;23.260;2023-07-20T02:22:04;8.53;;;2.57;;
20008;SDS011;10165;42.662;23.260;2023-07-20T02:24:32;3.63;;;2.30;;
20008;SDS011;10165;42.662;23.260;2023-07-20T02:27:02;4.03;;;2.73;;
20008;SDS011;10165;42.662;23.260;2023-07-20T02:29:29;3.73;;;2.30;;
20008;SDS011;10165;42.662;23.260;2023-07-20T02:31:56;4.67;;;2.63;;
20008;SDS011;10165;42.662;23.260;2023-07-20T02:34:24;10.10;;;2.40;;
20008;SDS011;10165;42.662;23.260;2023-07-20T02:36:51;7.60;;;2.67;;
20008;SDS011;10165;42.662;23.260;2023-07-20T02:39:17;5.67;;;2.33;;
20008;SDS011;10165;42.662;23.260;2023-07-20T02:41:44;3.40;;;2.50;;
20008;SDS011;10165;42.662;23.260;2023-07-20T02:44:11;3.93;;;1.93;;
20008;SDS011;10165;42.662;23.260;2023-07-20T02:46:38;5.53;;;2.57;;
20008;SDS011;10165;42.662;23.260;2023-07-20T02:49:04;7.60;;;2.60;;
20008;SDS011;10165;42.662;23.260;2023-07-20T02:51:31;4.47;;;2.33;;
20008;SDS011;10165;42.662;23.260;2023-07-20T02:53:58;7.63;;;3.00;;
20008;SDS011;10165;42.662;23.260;2023-07-20T02:56:25;5.30;;;2.47;;
20008;SDS011;10165;42.662;23.260;2023-07-20T02:58:52;8.53;;;2.93;;
20008;SDS011;10165;42.662;23.260;2023-07-20T03:01:19;9.23;;;2.70;;
20008;SDS011;10165;42.662;23.260;2023-07-20T03:03:45;5.23;;;2.47;;
20008;SDS011;10165;42.662;23.260;2023-07-20T03:06:13;6.93;;;3.00;;
20008;SDS011;10165;42.662;23.260;2023-07-20T03:08:43;9.83;;;3.20;;
20008;SDS011;10165;42.662;23.260;2023-07-20T03:11:11;5.27;;;2.50;;
20008;SDS011;10165;42.662;23.260;2023-07-20T03:13:39;8.93;;;3.17;;
20008;SDS011;10165;42.662;23.260;2023-07-20T03:16:06;11.90;;;2.57;;
20008;SDS011;10165;42.662;23.260;2023-07-20T03:18:40;5.53;;;2.80;;
20008;SDS011;10165;42.662;23.260;2023-07-20T03:21:08;6.63;;;2.57;;
20008;SDS011;10165;42.662;23.260;2023-07-20T03:23:38;4.30;;;3.17;;
20008;SDS011;10165;42.662;23.260;2023-07-20T03:26:08;5.17;;;2.60;;
20008;SDS011;10165;42.662;23.260;2023-07-20T03:28:36;5.87;;;2.80;;
20008;SDS011;10165;42.662;23.260;2023-07-20T03:31:03;10.13;;;3.00;;
20008;SDS011;10165;42.662;23.260;2023-07-20T03:33:30;6.97;;;3.10;;
20008;SDS011;10165;42.662;23.260;2023-07-20T03:35:58;4.43;;;2.27;;
20008;SDS011;10165;42.662;23.260;2023-07-20T03:38:29;4.80;;;2.57;;
20008;SDS011;10165;42.662;23.260;2023-07-20T03:40:57;12.03;;;3.30;;
20008;SDS011;10165;42.662;23.260;2023-07-20T03:43:26;6.67;;;3.00;;
20008;SDS011;10165;42.662;23.260;2023-07-20T03:45:54;4.87;;;2.47;;
20008;SDS011;10165;42.662;23.260;2023-07-20T03:48:23;5.43;;;3.20;;
20008;SDS011;10165;42.662;23.260;2023-07-20T03:50:51;6.23;;;2.80;;
20008;SDS011;10165;42.662;23.260;2023-07-20T03:53:19;10.70;;;2.73;;
20008;SDS011;10165;42.662;23.260;2023-07-20T03:55:46;5.97;;;3.07;;
20008;SDS011;10165;42.662;23.260;2023-07-20T03:58:14;6.00;;;2.70;;
20008;SDS011;10165;42.662;23.260;2023-07-20T04:00:44;6.57;;;3.10;;
20008;SDS011;10165;42.662;23.260;2023-07-20T04:03:18;6.60;;;3.00;;
20008;SDS011;10165;42.662;23.260;2023-07-20T04:05:46;8.53;;;3.03;;
20008;SDS011;10165;42.662;23.260;2023-07-20T04:08:13;6.10;;;2.73;;
20008;SDS011;10165;42.662;23.260;2023-07-20T04:10:42;7.90;;;2.60;;
20008;SDS011;10165;42.662;23.260;2023-07-20T04:13:10;5.07;;;2.83;;
20008;SDS011;10165;42.662;23.260;2023-07-20T04:15:37;6.60;;;2.93;;
20008;SDS011;10165;42.662;23.260;2023-07-20T04:18:04;10.27;;;3.37;;
20008;SDS011;10165;42.662;23.260;2023-07-20T04:20:33;10.43;;;3.00;;
20008;SDS011;10165;42.662;23.260;2023-07-20T04:23:00;8.13;;;2.83;;
20008;SDS011;10165;42.662;23.260;2023-07-20T04:25:27;10.23;;;3.80;;
20008;SDS011;10165;42.662;23.260;2023-07-20T04:27:54;6.57;;;3.17;;
20008;SDS011;10165;42.662;23.260;2023-07-20T04:30:22;8.83;;;3.90;;
20008;SDS011;10165;42.662;23.260;2023-07-20T04:32:49;10.60;;;3.73;;
20008;SDS011;10165;42.662;23.260;2023-07-20T04:35:59;8.17;;;3.63;;
20008;SDS011;10165;42.662;23.260;2023-07-20T04:41:12;8.23;;;3.10;;
20008;SDS011;10165;42.662;23.260;2023-07-20T04:43:42;7.27;;;3.07;;
20008;SDS011;10165;42.662;23.260;2023-07-20T04:46:10;6.93;;;3.10;;
20008;SDS011;10165;42.662;23.260;2023-07-20T04:48:37;6.47;;;2.93;;
20008;SDS011;10165;42.662;23.260;2023-07-20T04:51:04;10.03;;;2.73;;
20008;SDS011;10165;42.662;23.260;2023-07-20T04:53:32;3.20;;;2.90;;
20008;SDS011;10165;42.662;23.260;2023-07-20T04:55:58;5.77;;;3.20;;
20008;SDS011;10165;42.662;23.260;2023-07-20T04:58:25;5.23;;;2.93;;
20008;SDS011;10165;42.662;23.260;2023-07-20T05:00:52;7.50;;;2.83;;
20008;SDS011;10165;42.662;23.260;2023-07-20T05:03:22;10.23;;;3.93;;
20008;SDS011;10165;42.662;23.260;2023-07-20T05:05:48;5.57;;;3.50;;
20008;SDS011;10165;42.662;23.260;2023-07-20T05:08:16;8.77;;;2.53;;
20008;SDS011;10165;42.662;23.260;2023-07-20T05:10:43;11.97;;;3.53;;
20008;SDS011;10165;42.662;23.260;2023-07-20T05:13:10;12.00;;;3.27;;
20008;SDS011;10165;42.662;23.260;2023-07-20T05:15:36;13.57;;;3.17;;
20008;SDS011;10165;42.662;23.260;2023-07-20T05:18:05;13.63;;;3.53;;
20008;SDS011;10165;42.662;23.260;2023-07-20T05:20:32;5.47;;;3.23;;
20008;SDS011;10165;42.662;23.260;2023-07-20T05:22:59;11.80;;;3.53;;
20008;SDS011;10165;42.662;23.260;2023-07-20T05:25:27;4.50;;;2.93;;
20008;SDS011;10165;42.662;23.260;2023-07-20T05:27:56;8.00;;;2.90;;
20008;SDS011;10165;42.662;23.260;2023-07-20T05:30:23;7.83;;;3.40;;
20008;SDS011;10165;42.662;23.260;2023-07-20T05:32:50;12.60;;;3.70;;
20008;SDS011;10165;42.662;23.260;2023-07-20T05:35:19;5.70;;;2.87;;
20008;SDS011;10165;42.662;23.260;2023-07-20T05:37:46;6.63;;;2.83;;
20008;SDS011;10165;42.662;23.260;2023-07-20T05:40:14;8.30;;;2.90;;
20008;SDS011;10165;42.662;23.260;2023-07-20T05:42:46;6.60;;;2.70;;
20008;SDS011;10165;42.662;23.260;2023-07-20T05:45:18;7.43;;;3.37;;
20008;SDS011;10165;42.662;23.260;2023-07-20T05:47:45;10.00;;;3.40;;
20008;SDS011;10165;42.662;23.260;2023-07-20T05:50:12;9.73;;;3.10;;
20008;SDS011;10165;42.662;23.260;2023-07-20T05:52:39;10.53;;;2.80;;
20008;SDS011;10165;42.662;23.260;2023-07-20T05:55:07;6.57;;;3.10;;
20008;SDS011;10165;42.662;23.260;2023-07-20T05:57:34;10.90;;;3.47;;
20008;SDS011;10165;42.662;23.260;2023-07-20T06:00:01;6.17;;;2.83;;
20008;SDS011;10165;42.662;23.260;2023-07-20T06:02:29;5.97;;;2.97;;
20008;SDS011;10165;42.662;23.260;2023-07-20T06:04:56;5.13;;;2.90;;
20008;SDS011;10165;42.662;23.260;2023-07-20T06:07:24;7.63;;;3.03;;
20008;SDS011;10165;42.662;23.260;2023-07-20T06:09:51;9.23;;;3.47;;
20008;SDS011;10165;42.662;23.260;2023-07-20T06:12:18;7.17;;;3.03;;
20008;SDS011;10165;42.662;23.260;2023-07-20T06:14:45;7.07;;;3.20;;
20008;SDS011;10165;42.662;23.260;2023-07-20T06:17:13;8.67;;;3.10;;
20008;SDS011;10165;42.662;23.260;2023-07-20T06:19:40;5.87;;;3.10;;
20008;SDS011;10165;42.662;23.260;2023-07-20T06:22:11;7.20;;;3.03;;
20008;SDS011;10165;42.662;23.260;2023-07-20T06:24:38;4.73;;;3.00;;
20008;SDS011;10165;42.662;23.260;2023-07-20T06:27:07;11.53;;;3.27;;
20008;SDS011;10165;42.662;23.260;2023-07-20T06:29:34;6.67;;;3.23;;
20008;SDS011;10165;42.662;23.260;2023-07-20T06:32:00;7.23;;;3.17;;
20008;SDS011;10165;42.662;23.260;2023-07-20T06:34:30;6.33;;;2.50;;
20008;SDS011;10165;42.662;23.260;2023-07-20T06:36:57;7.53;;;3.10;;
20008;SDS011;10165;42.662;23.260;2023-07-20T06:39:24;6.77;;;3.37;;
20008;SDS011;10165;42.662;23.260;2023-07-20T06:41:54;8.73;;;3.00;;
20008;SDS011;10165;42.662;23.260;2023-07-20T06:44:21;9.43;;;3.13;;
20008;SDS011;10165;42.662;23.260;2023-07-20T06:46:49;10.67;;;3.37;;
20008;SDS011;10165;42.662;23.260;2023-07-20T06:49:26;6.73;;;3.30;;
20008;SDS011;10165;42.662;23.260;2023-07-20T06:51:53;8.27;;;3.60;;
20008;SDS011;10165;42.662;23.260;2023-07-20T06:54:21;9.87;;;3.43;;
20008;SDS011;10165;42.662;23.260;2023-07-20T06:56:49;8.43;;;3.63;;
20008;SDS011;10165;42.662;23.260;2023-07-20T06:59:36;9.23;;;3.80;;
20008;SDS011;10165;42.662;23.260;2023-07-20T07:02:07;9.50;;;3.43;;
20008;SDS011;10165;42.662;23.260;2023-07-20T07:04:40;9.13;;;3.27;;
20008;SDS011;10165;42.662;23.260;2023-07-20T07:07:07;7.60;;;3.13;;
20008;SDS011;10165;42.662;23.260;2023-07-20T07:09:35;13.53;;;3.60;;
20008;SDS011;10165;42.662;23.260;2023-07-20T07:12:03;7.63;;;3.20;;
20008;SDS011;10165;42.662;23.260;2023-07-20T07:14:30;7.43;;;3.57;;
20008;SDS011;10165;42.662;23.260;2023-07-20T07:16:58;6.57;;;3.30;;
20008;SDS011;10165;42.662;23.260;2023-07-20T07:19:30;7.27;;;3.37;;
20008;SDS011;10165;42.662;23.260;2023-07-20T07:21:57;7.27;;;3.10;;
20008;SDS011;10165;42.662;23.260;2023-07-20T07:24:26;6.90;;;4.10;;
20008;SDS011;10165;42.662;23.260;2023-07-20T07:26:55;8.90;;;3.50;;
20008;SDS011;10165;42.662;23.260;2023-07-20T07:29:22;10.77;;;3.70;;
20008;SDS011;10165;42.662;23.260;2023-07-20T07:31:48;8.27;;;3.80;;
20008;SDS011;10165;42.662;23.260;2023-07-20T07:34:15;7.03;;;3.60;;
20008;SDS011;10165;42.662;23.260;2023-07-20T07:36:42;9.60;;;3.60;;
20008;SDS011;10165;42.662;23.260;2023-07-20T07:39:09;6.37;;;3.50;;
20008;SDS011;10165;42.662;23.260;2023-07-20T07:41:39;11.07;;;3.70;;
20008;SDS011;10165;42.662;23.260;2023-07-20T07:44:06;8.23;;;3.40;;
20008;SDS011;10165;42.662;23.260;2023-07-20T07:46:35;7.03;;;3.67;;
20008;SDS011;10165;42.662;23.260;2023-07-20T07:49:02;8.80;;;4.03;;
20008;SDS011;10165;42.662;23.260;2023-07-20T07:51:28;6.40;;;3.73;;
20008;SDS011;10165;42.662;23.260;2023-07-20T07:53:55;9.93;;;3.37;;
20008;SDS011;10165;42.662;23.260;2023-07-20T07:56:22;10.77;;;3.37;;
20008;SDS011;10165;42.662;23.260;2023-07-20T07:58:50;7.13;;;3.40;;
20008;SDS011;10165;42.662;23.260;2023-07-20T08:01:18;13.07;;;3.80;;
20008;SDS011;10165;42.662;23.260;2023-07-20T08:03:48;8.17;;;3.63;;
20008;SDS011;10165;42.662;23.260;2023-07-20T08:06:16;8.33;;;4.40;;
20008;SDS011;10165;42.662;23.260;2023-07-20T08:08:43;5.17;;;2.80;;
20008;SDS011;10165;42.662;23.260;2023-07-20T08:11:10;9.33;;;3.03;;
20008;SDS011;10165;42.662;23.260;2023-07-20T08:13:39;8.67;;;3.33;;
20008;SDS011;10165;42.662;23.260;2023-07-20T08:16:06;10.43;;;3.90;;
20008;SDS011;10165;42.662;23.260;2023-07-20T08:18:32;10.10;;;3.17;;
20008;SDS011;10165;42.662;23.260;2023-07-20T08:20:59;7.17;;;3.00;;
20008;SDS011;10165;42.662;23.260;2023-07-20T08:23:29;14.30;;;2.37;;
20008;SDS011;10165;42.662;23.260;2023-07-20T08:25:58;4.07;;;2.33;;
20008;SDS011;10165;42.662;23.260;2023-07-20T08:28:25;6.10;;;2.60;;
20008;SDS011;10165;42.662;23.260;2023-07-20T08:30:53;4.73;;;2.80;;
20008;SDS011;10165;42.662;23.260;2023-07-20T08:33:20;7.13;;;2.87;;
20008;SDS011;10165;42.662;23.260;2023-07-20T08:35:47;4.80;;;2.13;;
20008;SDS011;10165;42.662;23.260;2023-07-20T08:38:14;5.87;;;2.13;;
20008;SDS011;10165;42.662;23.260;2023-07-20T08:40:42;5.37;;;2.20;;
20008;SDS011;10165;42.662;23.260;2023-07-20T08:43:11;7.70;;;2.20;;
20008;SDS011;10165;42.662;23.260;2023-07-20T08:45:39;8.47;;;2.77;;
20008;SDS011;10165;42.662;23.260;2023-07-20T08:48:07;7.23;;;2.47;;
20008;SDS011;10165;42.662;23.260;2023-07-20T08:50:34;6.13;;;2.17;;
20008;SDS011;10165;42.662;23.260;2023-07-20T08:53:04;5.20;;;2.40;;
20008;SDS011;10165;42.662;23.260;2023-07-20T08:55:32;7.00;;;3.00;;
20008;SDS011;10165;42.662;23.260;2023-07-20T08:57:59;5.57;;;2.63;;
20008;SDS011;10165;42.662;23.260;2023-07-20T09:00:27;5.40;;;2.30;;
20008;SDS011;10165;42.662;23.260;2023-07-20T09:02:55;5.20;;;2.20;;
20008;SDS011;10165;42.662;23.260;2023-07-20T09:05:24;6.30;;;2.67;;
20008;SDS011;10165;42.662;23.260;2023-07-20T09:07:52;11.50;;;2.60;;
20008;SDS011;10165;42.662;23.260;2023-07-20T09:10:20;4.93;;;2.10;;
20008;SDS011;10165;42.662;23.260;2023-07-20T09:12:48;6.07;;;2.13;;
20008;SDS011;10165;42.662;23.260;2023-07-20T09:15:15;7.90;;;2.20;;
20008;SDS011;10165;42.662;23.260;2023-07-20T09:17:47;9.23;;;1.90;;
20008;SDS011;10165;42.662;23.260;2023-07-20T09:20:18;8.53;;;2.40;;
20008;SDS011;10165;42.662;23.260;2023-07-20T09:22:50;4.73;;;2.10;;
20008;SDS011;10165;42.662;23.260;2023-07-20T09:25:19;9.73;;;2.30;;
20008;SDS011;10165;42.662;23.260;2023-07-20T09:27:54;5.00;;;2.17;;
20008;SDS011;10165;42.662;23.260;2023-07-20T09:30:24;4.60;;;1.83;;
20008;SDS011;10165;42.662;23.260;2023-07-20T09:32:57;4.90;;;2.10;;
20008;SDS011;10165;42.662;23.260;2023-07-20T09:35:25;6.67;;;2.30;;
20008;SDS011;10165;42.662;23.260;2023-07-20T09:38:07;5.63;;;2.20;;
20008;SDS011;10165;42.662;23.260;2023-07-20T09:40:38;7.17;;;2.33;;
20008;SDS011;10165;42.662;23.260;2023-07-20T09:43:08;4.57;;;2.00;;
20008;SDS011;10165;42.662;23.260;2023-07-20T09:45:39;5.60;;;2.47;;
20008;SDS011;10165;42.662;23.260;2023-07-20T09:48:11;5.88;;;1.98;;
20008;SDS011;10165;42.662;23.260;2023-07-20T09:50:48;7.00;;;2.58;;
20008;SDS011;10165;42.662;23.260;2023-07-20T09:53:17;11.60;;;2.20;;
20008;SDS011;10165;42.662;23.260;2023-07-20T09:55:48;4.15;;;2.05;;
20008;SDS011;10165;42.662;23.260;2023-07-20T09:58:15;11.32;;;2.10;;
20008;SDS011;10165;42.662;23.260;2023-07-20T10:00:43;5.50;;;2.50;;
20008;SDS011;10165;42.662;23.260;2023-07-20T10:03:18;10.00;;;2.85;;
20008;SDS011;10165;42.662;23.260;2023-07-20T10:05:57;8.50;;;2.15;;
20008;SDS011;10165;42.662;23.260;2023-07-20T10:08:29;8.40;;;1.80;;
20008;SDS011;10165;42.662;23.260;2023-07-20T10:11:00;7.72;;;2.08;;
20008;SDS011;10165;42.662;23.260;2023-07-20T10:13:29;8.13;;;2.08;;
20008;SDS011;10165;42.662;23.260;2023-07-20T10:16:07;6.28;;;2.28;;
20008;SDS011;10165;42.662;23.260;2023-07-20T10:21:07;2.45;;;1.83;;
20008;SDS011;10165;42.662;23.260;2023-07-20T10:23:39;6.03;;;2.00;;
20008;SDS011;10165;42.662;23.260;2023-07-20T10:26:08;4.75;;;1.75;;
20008;SDS011;10165;42.662;23.260;2023-07-20T10:28:36;5.38;;;2.30;;
20008;SDS011;10165;42.662;23.260;2023-07-20T10:31:04;2.42;;;1.88;;
20008;SDS011;10165;42.662;23.260;2023-07-20T10:33:33;7.07;;;2.50;;
20008;SDS011;10165;42.662;23.260;2023-07-20T10:36:01;7.38;;;2.80;;
20008;SDS011;10165;42.662;23.260;2023-07-20T10:41:34;6.97;;;2.50;;
20008;SDS011;10165;42.662;23.260;2023-07-20T10:44:03;6.35;;;2.15;;
20008;SDS011;10165;42.662;23.260;2023-07-20T10:49:07;3.72;;;1.90;;
20008;SDS011;10165;42.662;23.260;2023-07-20T10:51:42;10.30;;;2.10;;
20008;SDS011;10165;42.662;23.260;2023-07-20T10:56:43;9.52;;;2.75;;
20008;SDS011;10165;42.662;23.260;2023-07-20T10:59:20;5.22;;;2.45;;
20008;SDS011;10165;42.662;23.260;2023-07-20T11:01:50;4.32;;;2.83;;
20008;SDS011;10165;42.662;23.260;2023-07-20T11:04:55;8.32;;;2.90;;
20008;SDS011;10165;42.662;23.260;2023-07-20T11:07:16;8.45;;;3.17;;
20008;SDS011;10165;42.662;23.260;2023-07-20T11:09:45;6.25;;;3.30;;
20008;SDS011;10165;42.662;23.260;2023-07-20T11:12:15;11.63;;;3.55;;
20008;SDS011;10165;42.662;23.260;2023-07-20T11:14:44;9.63;;;3.08;;
20008;SDS011;10165;42.662;23.260;2023-07-20T11:17:20;8.95;;;3.70;;
20008;SDS011;10165;42.662;23.260;2023-07-20T11:19:56;6.18;;;3.20;;
20008;SDS011;10165;42.662;23.260;2023-07-20T11:22:26;10.02;;;3.75;;
20008;SDS011;10165;42.662;23.260;2023-07-20T11:24:57;6.28;;;3.60;;
20008;SDS011;10165;42.662;23.260;2023-07-20T11:27:26;7.22;;;4.00;;
20008;SDS011;10165;42.662;23.260;2023-07-20T11:29:55;7.50;;;4.25;;
20008;SDS011;10165;42.662;23.260;2023-07-20T11:32:22;7.63;;;4.00;;
20008;SDS011;10165;42.662;23.260;2023-07-20T11:34:49;6.22;;;3.42;;
20008;SDS011;10165;42.662;23.260;2023-07-20T11:37:17;9.93;;;4.40;;
20008;SDS011;10165;42.662;23.260;2023-07-20T11:39:45;6.13;;;3.95;;
20008;SDS011;10165;42.662;23.260;2023-07-20T11:42:13;5.60;;;3.72;;
20008;SDS011;10165;42.662;23.260;2023-07-20T11:45:02;4.85;;;3.55;;
20008;SDS011;10165;42.662;23.260;2023-07-20T11:47:31;8.73;;;3.70;;
20008;SDS011;10165;42.662;23.260;2023-07-20T11:50:02;9.13;;;3.90;;
20008;SDS011;10165;42.662;23.260;2023-07-20T11:52:30;6.93;;;3.95;;
20008;SDS011;10165;42.662;23.260;2023-07-20T11:55:00;9.35;;;4.10;;
20008;SDS011;10165;42.662;23.260;2023-07-20T11:57:28;8.93;;;3.42;;
20008;SDS011;10165;42.662;23.260;2023-07-20T11:59:55;6.55;;;3.90;;
20008;SDS011;10165;42.662;23.260;2023-07-20T12:02:24;6.53;;;3.67;;
20008;SDS011;10165;42.662;23.260;2023-07-20T12:04:56;10.88;;;3.75;;
20008;SDS011;10165;42.662;23.260;2023-07-20T12:07:25;7.07;;;3.53;;
20008;SDS011;10165;42.662;23.260;2023-07-20T12:10:12;8.15;;;3.33;;
20008;SDS011;10165;42.662;23.260;2023-07-20T12:12:39;5.43;;;3.15;;
20008;SDS011;10165;42.662;23.260;2023-07-20T12:17:41;9.05;;;3.25;;
20008;SDS011;10165;42.662;23.260;2023-07-20T12:20:12;5.38;;;2.58;;
20008;SDS011;10165;42.662;23.260;2023-07-20T12:22:40;4.50;;;2.60;;
20008;SDS011;10165;42.662;23.260;2023-07-20T12:25:09;4.32;;;2.78;;
20008;SDS011;10165;42.662;23.260;2023-07-20T12:27:36;6.57;;;2.55;;
20008;SDS011;10165;42.662;23.260;2023-07-20T12:30:05;8.93;;;2.38;;
20008;SDS011;10165;42.662;23.260;2023-07-20T12:32:32;8.05;;;2.50;;
20008;SDS011;10165;42.662;23.260;2023-07-20T12:34:59;4.25;;;2.60;;
20008;SDS011;10165;42.662;23.260;2023-07-20T12:37:26;6.05;;;2.42;;
20008;SDS011;10165;42.662;23.260;2023-07-20T12:39:53;9.98;;;3.15;;
20008;SDS011;10165;42.662;23.260;2023-07-20T12:42:20;5.72;;;2.47;;
20008;SDS011;10165;42.662;23.260;2023-07-20T12:44:47;8.60;;;2.80;;
20008;SDS011;10165;42.662;23.260;2023-07-20T12:47:15;10.45;;;2.97;;
20008;SDS011;10165;42.662;23.260;2023-07-20T12:49:43;5.30;;;2.40;;
20008;SDS011;10165;42.662;23.260;2023-07-20T12:52:11;5.63;;;2.88;;
20008;SDS011;10165;42.662;23.260;2023-07-20T12:54:41;5.80;;;2.80;;
20008;SDS011;10165;42.662;23.260;2023-07-20T12:57:08;6.45;;;2.92;;
20008;SDS011;10165;42.662;23.260;2023-07-20T12:59:37;10.52;;;3.47;;
20008;SDS011;10165;42.662;23.260;2023-07-20T13:02:04;6.03;;;2.50;;
20008;SDS011;10165;42.662;23.260;2023-07-20T13:04:31;5.10;;;2.33;;
20008;SDS011;10165;42.662;23.260;2023-07-20T13:06:58;8.50;;;3.20;;
20008;SDS011;10165;42.662;23.260;2023-07-20T13:09:26;6.43;;;2.53;;
20008;SDS011;10165;42.662;23.260;2023-07-20T13:11:53;5.35;;;2.45;;
20008;SDS011;10165;42.662;23.260;2023-07-20T13:14:19;7.20;;;2.55;;
20008;SDS011;10165;42.662;23.260;2023-07-20T13:16:46;5.75;;;2.80;;
20008;SDS011;10165;42.662;23.260;2023-07-20T13:19:13;4.93;;;2.88;;
20008;SDS011;10165;42.662;23.260;2023-07-20T13:21:40;9.50;;;2.65;;
20008;SDS011;10165;42.662;23.260;2023-07-20T13:24:06;5.15;;;2.30;;
20008;SDS011;10165;42.662;23.260;2023-07-20T13:26:33;3.60;;;2.53;;
20008;SDS011;10165;42.662;23.260;2023-07-20T13:29:02;8.00;;;2.67;;
20008;SDS011;10165;42.662;23.260;2023-07-20T13:31:29;9.02;;;2.40;;
20008;SDS011;10165;42.662;23.260;2023-07-20T13:34:00;6.30;;;2.63;;
20008;SDS011;10165;42.662;23.260;2023-07-20T13:36:29;7.18;;;2.75;;
20008;SDS011;10165;42.662;23.260;2023-07-20T13:38:56;7.40;;;2.28;;
20008;SDS011;10165;42.662;23.260;2023-07-20T13:41:24;6.97;;;2.58;;
20008;SDS011;10165;42.662;23.260;2023-07-20T13:43:52;8.23;;;2.08;;
20008;SDS011;10165;42.662;23.260;2023-07-20T13:46:23;13.18;;;2.22;;
20008;SDS011;10165;42.662;23.260;2023-07-20T13:48:53;4.82;;;2.55;;
20008;SDS011;10165;42.662;23.260;2023-07-20T13:51:23;7.47;;;2.55;;
20008;SDS011;10165;42.662;23.260;2023-07-20T13:53:53;6.35;;;2.10;;
20008;SDS011;10165;42.662;23.260;2023-07-20T13:56:20;4.25;;;2.25;;
20008;SDS011;10165;42.662;23.260;2023-07-20T13:58:47;3.58;;;2.00;;
20008;SDS011;10165;42.662;23.260;2023-07-20T14:01:16;9.00;;;2.47;;
20008;SDS011;10165;42.662;23.260;2023-07-20T14:03:46;6.93;;;2.38;;
20008;SDS011;10165;42.662;23.260;2023-07-20T14:06:13;3.72;;;1.77;;
20008;SDS011;10165;42.662;23.260;2023-07-20T14:08:43;6.13;;;2.30;;
20008;SDS011;10165;42.662;23.260;2023-07-20T14:11:13;7.47;;;2.30;;
20008;SDS011;10165;42.662;23.260;2023-07-20T14:13:42;4.85;;;2.10;;
20008;SDS011;10165;42.662;23.260;2023-07-20T14:16:13;5.00;;;2.50;;
20008;SDS011;10165;42.662;23.260;2023-07-20T14:18:40;5.57;;;2.10;;
20008;SDS011;10165;42.662;23.260;2023-07-20T14:21:07;7.80;;;2.60;;
20008;SDS011;10165;42.662;23.260;2023-07-20T14:23:34;4.45;;;2.15;;
20008;SDS011;10165;42.662;23.260;2023-07-20T14:26:02;4.13;;;1.92;;
20008;SDS011;10165;42.662;23.260;2023-07-20T14:28:36;1.98;;;1.65;;
20008;SDS011;10165;42.662;23.260;2023-07-20T14:31:03;6.53;;;2.58;;
20008;SDS011;10165;42.662;23.260;2023-07-20T14:33:32;5.93;;;2.47;;
20008;SDS011;10165;42.662;23.260;2023-07-20T14:36:03;5.15;;;2.10;;
20008;SDS011;10165;42.662;23.260;2023-07-20T14:38:31;8.35;;;2.70;;
20008;SDS011;10165;42.662;23.260;2023-07-20T14:41:00;5.22;;;2.10;;
20008;SDS011;10165;42.662;23.260;2023-07-20T14:43:27;7.55;;;2.55;;
20008;SDS011;10165;42.662;23.260;2023-07-20T14:45:54;3.28;;;2.13;;
20008;SDS011;10165;42.662;23.260;2023-07-20T14:48:24;5.75;;;2.17;;
20008;SDS011;10165;42.662;23.260;2023-07-20T14:50:50;4.15;;;1.83;;
20008;SDS011;10165;42.662;23.260;2023-07-20T14:53:18;7.25;;;2.20;;
20008;SDS011;10165;42.662;23.260;2023-07-20T14:55:45;2.53;;;1.90;;
20008;SDS011;10165;42.662;23.260;2023-07-20T14:58:11;4.38;;;2.15;;
20008;SDS011;10165;42.662;23.260;2023-07-20T15:00:38;9.93;;;2.65;;
20008;SDS011;10165;42.662;23.260;2023-07-20T15:03:05;7.45;;;2.58;;
20008;SDS011;10165;42.662;23.260;2023-07-20T15:05:32;6.35;;;1.90;;
20008;SDS011;10165;42.662;23.260;2023-07-20T15:08:03;6.03;;;3.03;;
20008;SDS011;10165;42.662;23.260;2023-07-20T15:10:30;4.43;;;1.98;;